sensor_id;sensor_type;location;lat;lon;timestamp;temperature;humidity
72206;DHT22;60111;48.286;7.812;2022-09-17T00:00:16;12.40;99.90
72206;DHT22;60111;48.286;7.812;2022-09-17T00:02:50;12.30;99.90
72206;DHT22;60111;48.286;7.812;2022-09-17T00:05:25;12.30;99.90
72206;DHT22;60111;48.286;7.812;2022-09-17T00:07:57;12.30;99.90
72206;DHT22;60111;48.286;7.812;2022-09-17T00:10:31;12.20;99.90
72206;DHT22;60111;48.286;7.812;2022-09-17T00:13:05;12.30;99.90
72206;DHT22;60111;48.286;7.812;2022-09-17T00:15:42;12.20;99.90
72206;DHT22;60111;48.286;7.812;2022-09-17T00:18:15;12.20;99.90
72206;DHT22;60111;48.286;7.812;2022-09-17T00:20:48;12.20;99.90
72206;DHT22;60111;48.286;7.812;2022-09-17T00:23:20;12.10;99.90
72206;DHT22;60111;48.286;7.812;2022-09-17T00:25:53;12.10;99.90
72206;DHT22;60111;48.286;7.812;2022-09-17T00:28:26;12.20;99.90
72206;DHT22;60111;48.286;7.812;2022-09-17T00:30:58;12.20;99.90
72206;DHT22;60111;48.286;7.812;2022-09-17T00:33:31;12.20;99.90
72206;DHT22;60111;48.286;7.812;2022-09-17T00:36:04;12.20;99.90
72206;DHT22;60111;48.286;7.812;2022-09-17T00:38:38;12.10;99.90
72206;DHT22;60111;48.286;7.812;2022-09-17T00:41:10;12.10;99.90
72206;DHT22;60111;48.286;7.812;2022-09-17T00:43:59;12.20;99.90
72206;DHT22;60111;48.286;7.812;2022-09-17T00:46:39;12.10;99.90
72206;DHT22;60111;48.286;7.812;2022-09-17T00:49:18;12.00;99.90
72206;DHT22;60111;48.286;7.812;2022-09-17T00:51:58;12.00;99.90
72206;DHT22;60111;48.286;7.812;2022-09-17T00:54:30;12.00;99.90
72206;DHT22;60111;48.286;7.812;2022-09-17T00:57:03;12.10;99.90
72206;DHT22;60111;48.286;7.812;2022-09-17T00:59:36;12.00;99.90
72206;DHT22;60111;48.286;7.812;2022-09-17T01:02:09;12.00;99.90
72206;DHT22;60111;48.286;7.812;2022-09-17T01:04:42;12.00;99.90
72206;DHT22;60111;48.286;7.812;2022-09-17T01:07:40;11.90;99.90
72206;DHT22;60111;48.286;7.812;2022-09-17T01:10:25;11.90;99.90
72206;DHT22;60111;48.286;7.812;2022-09-17T01:13:31;11.90;99.90
72206;DHT22;60111;48.286;7.812;2022-09-17T01:22:08;11.70;99.90
72206;DHT22;60111;48.286;7.812;2022-09-17T01:24:47;11.60;99.90
72206;DHT22;60111;48.286;7.812;2022-09-17T01:30:24;11.60;99.90
72206;DHT22;60111;48.286;7.812;2022-09-17T01:33:08;11.50;99.90
72206;DHT22;60111;48.286;7.812;2022-09-17T01:36:03;11.50;99.90
72206;DHT22;60111;48.286;7.812;2022-09-17T01:38:39;11.50;99.90
72206;DHT22;60111;48.286;7.812;2022-09-17T01:44:21;11.50;99.90
72206;DHT22;60111;48.286;7.812;2022-09-17T01:47:04;11.50;99.90
72206;DHT22;60111;48.286;7.812;2022-09-17T01:49:39;11.40;99.90
72206;DHT22;60111;48.286;7.812;2022-09-17T01:52:13;11.40;99.90
72206;DHT22;60111;48.286;7.812;2022-09-17T01:54:52;11.40;99.90
72206;DHT22;60111;48.286;7.812;2022-09-17T01:57:50;11.40;99.90
72206;DHT22;60111;48.286;7.812;2022-09-17T02:00:09;11.40;99.90
72206;DHT22;60111;48.286;7.812;2022-09-17T02:02:53;11.40;99.90
72206;DHT22;60111;48.286;7.812;2022-09-17T02:05:43;11.40;99.90
72206;DHT22;60111;48.286;7.812;2022-09-17T02:08:19;11.40;99.90
72206;DHT22;60111;48.286;7.812;2022-09-17T02:11:08;11.50;99.90
72206;DHT22;60111;48.286;7.812;2022-09-17T02:13:47;11.40;99.90
72206;DHT22;60111;48.286;7.812;2022-09-17T02:16:28;11.40;99.90
72206;DHT22;60111;48.286;7.812;2022-09-17T02:21:41;11.40;99.90
72206;DHT22;60111;48.286;7.812;2022-09-17T02:27:02;11.40;99.90
72206;DHT22;60111;48.286;7.812;2022-09-17T02:29:40;11.40;99.90
72206;DHT22;60111;48.286;7.812;2022-09-17T02:32:13;11.40;99.90
72206;DHT22;60111;48.286;7.812;2022-09-17T02:34:45;11.50;99.90
72206;DHT22;60111;48.286;7.812;2022-09-17T02:37:18;11.50;99.90
72206;DHT22;60111;48.286;7.812;2022-09-17T02:39:51;11.50;99.90
72206;DHT22;60111;48.286;7.812;2022-09-17T02:42:48;11.50;99.90
72206;DHT22;60111;48.286;7.812;2022-09-17T02:51:28;11.50;99.90
72206;DHT22;60111;48.286;7.812;2022-09-17T03:00:00;11.60;99.90
72206;DHT22;60111;48.286;7.812;2022-09-17T03:02:41;11.60;99.90
72206;DHT22;60111;48.286;7.812;2022-09-17T03:05:19;11.50;99.90
72206;DHT22;60111;48.286;7.812;2022-09-17T03:07:54;11.50;99.90
72206;DHT22;60111;48.286;7.812;2022-09-17T03:10:27;11.50;99.90
72206;DHT22;60111;48.286;7.812;2022-09-17T03:13:02;11.40;99.90
72206;DHT22;60111;48.286;7.812;2022-09-17T03:15:34;11.40;99.90
72206;DHT22;60111;48.286;7.812;2022-09-17T03:18:08;11.40;99.90
72206;DHT22;60111;48.286;7.812;2022-09-17T03:20:40;11.40;99.90
72206;DHT22;60111;48.286;7.812;2022-09-17T03:23:13;11.30;99.90
72206;DHT22;60111;48.286;7.812;2022-09-17T03:25:46;11.20;99.90
72206;DHT22;60111;48.286;7.812;2022-09-17T03:28:20;11.30;99.90
72206;DHT22;60111;48.286;7.812;2022-09-17T03:30:53;11.30;99.90
72206;DHT22;60111;48.286;7.812;2022-09-17T03:33:27;11.30;99.90
72206;DHT22;60111;48.286;7.812;2022-09-17T03:36:00;11.30;99.90
72206;DHT22;60111;48.286;7.812;2022-09-17T03:38:33;11.30;99.90
72206;DHT22;60111;48.286;7.812;2022-09-17T03:41:06;11.40;99.90
72206;DHT22;60111;48.286;7.812;2022-09-17T03:43:38;11.30;99.90
72206;DHT22;60111;48.286;7.812;2022-09-17T03:46:11;11.40;99.90
72206;DHT22;60111;48.286;7.812;2022-09-17T03:48:43;11.40;99.90
72206;DHT22;60111;48.286;7.812;2022-09-17T03:51:16;11.40;99.90
72206;DHT22;60111;48.286;7.812;2022-09-17T03:53:52;11.40;99.90
72206;DHT22;60111;48.286;7.812;2022-09-17T03:56:24;11.40;99.90
72206;DHT22;60111;48.286;7.812;2022-09-17T03:59:01;11.40;99.90
72206;DHT22;60111;48.286;7.812;2022-09-17T04:01:33;11.40;99.90
72206;DHT22;60111;48.286;7.812;2022-09-17T04:04:06;11.40;99.90
72206;DHT22;60111;48.286;7.812;2022-09-17T04:06:39;11.40;99.90
72206;DHT22;60111;48.286;7.812;2022-09-17T04:09:11;11.40;99.90
72206;DHT22;60111;48.286;7.812;2022-09-17T04:11:44;11.30;99.90
72206;DHT22;60111;48.286;7.812;2022-09-17T04:14:17;11.30;99.90
72206;DHT22;60111;48.286;7.812;2022-09-17T04:16:49;11.30;99.90
72206;DHT22;60111;48.286;7.812;2022-09-17T04:19:22;11.30;99.90
72206;DHT22;60111;48.286;7.812;2022-09-17T04:21:54;11.40;99.90
72206;DHT22;60111;48.286;7.812;2022-09-17T04:24:27;11.30;99.90
72206;DHT22;60111;48.286;7.812;2022-09-17T04:26:59;11.30;99.90
72206;DHT22;60111;48.286;7.812;2022-09-17T04:29:32;11.40;99.90
72206;DHT22;60111;48.286;7.812;2022-09-17T04:32:05;11.40;99.90
72206;DHT22;60111;48.286;7.812;2022-09-17T04:34:38;11.40;99.90
72206;DHT22;60111;48.286;7.812;2022-09-17T04:37:11;11.40;99.90
72206;DHT22;60111;48.286;7.812;2022-09-17T04:39:43;11.30;99.90
72206;DHT22;60111;48.286;7.812;2022-09-17T04:42:16;11.30;99.90
72206;DHT22;60111;48.286;7.812;2022-09-17T04:44:48;11.30;99.90
72206;DHT22;60111;48.286;7.812;2022-09-17T04:47:21;11.30;99.90
72206;DHT22;60111;48.286;7.812;2022-09-17T04:49:53;11.20;99.90
72206;DHT22;60111;48.286;7.812;2022-09-17T04:52:26;11.20;99.90
72206;DHT22;60111;48.286;7.812;2022-09-17T04:54:59;11.30;99.90
72206;DHT22;60111;48.286;7.812;2022-09-17T04:57:31;11.30;99.90
72206;DHT22;60111;48.286;7.812;2022-09-17T05:00:08;11.20;99.90
72206;DHT22;60111;48.286;7.812;2022-09-17T05:02:45;11.20;99.90
72206;DHT22;60111;48.286;7.812;2022-09-17T05:05:19;11.20;99.90
72206;DHT22;60111;48.286;7.812;2022-09-17T05:07:52;11.20;99.90
72206;DHT22;60111;48.286;7.812;2022-09-17T05:10:25;11.20;99.90
72206;DHT22;60111;48.286;7.812;2022-09-17T05:12:57;11.20;99.90
72206;DHT22;60111;48.286;7.812;2022-09-17T05:15:30;11.20;99.90
72206;DHT22;60111;48.286;7.812;2022-09-17T05:18:03;11.20;99.90
72206;DHT22;60111;48.286;7.812;2022-09-17T05:20:35;11.30;99.90
72206;DHT22;60111;48.286;7.812;2022-09-17T05:23:10;11.30;99.90
72206;DHT22;60111;48.286;7.812;2022-09-17T05:25:42;11.20;99.90
72206;DHT22;60111;48.286;7.812;2022-09-17T05:28:15;11.30;99.90
72206;DHT22;60111;48.286;7.812;2022-09-17T05:30:47;11.20;99.90
72206;DHT22;60111;48.286;7.812;2022-09-17T05:33:20;11.20;99.90
72206;DHT22;60111;48.286;7.812;2022-09-17T05:35:53;11.20;99.90
72206;DHT22;60111;48.286;7.812;2022-09-17T05:38:26;11.10;99.90
72206;DHT22;60111;48.286;7.812;2022-09-17T05:41:02;11.10;99.90
72206;DHT22;60111;48.286;7.812;2022-09-17T05:43:32;11.10;99.90
72206;DHT22;60111;48.286;7.812;2022-09-17T05:46:06;11.10;99.90
72206;DHT22;60111;48.286;7.812;2022-09-17T05:48:39;11.20;99.90
72206;DHT22;60111;48.286;7.812;2022-09-17T05:51:11;11.20;99.90
72206;DHT22;60111;48.286;7.812;2022-09-17T05:53:47;11.20;99.90
72206;DHT22;60111;48.286;7.812;2022-09-17T05:56:21;11.20;99.90
72206;DHT22;60111;48.286;7.812;2022-09-17T05:58:55;11.20;99.90
72206;DHT22;60111;48.286;7.812;2022-09-17T06:01:28;11.30;99.90
72206;DHT22;60111;48.286;7.812;2022-09-17T06:04:01;11.30;99.90
72206;DHT22;60111;48.286;7.812;2022-09-17T06:06:35;11.20;99.90
72206;DHT22;60111;48.286;7.812;2022-09-17T06:09:09;11.20;99.90
72206;DHT22;60111;48.286;7.812;2022-09-17T06:11:42;11.20;99.90
72206;DHT22;60111;48.286;7.812;2022-09-17T06:14:15;11.30;99.90
72206;DHT22;60111;48.286;7.812;2022-09-17T06:16:48;11.30;99.90
72206;DHT22;60111;48.286;7.812;2022-09-17T06:19:20;11.20;99.90
72206;DHT22;60111;48.286;7.812;2022-09-17T06:21:53;11.40;99.90
72206;DHT22;60111;48.286;7.812;2022-09-17T06:24:26;11.30;99.90
72206;DHT22;60111;48.286;7.812;2022-09-17T06:26:58;11.40;99.90
72206;DHT22;60111;48.286;7.812;2022-09-17T06:29:31;11.30;99.90
72206;DHT22;60111;48.286;7.812;2022-09-17T06:32:04;11.40;99.90
72206;DHT22;60111;48.286;7.812;2022-09-17T06:34:40;11.50;99.90
72206;DHT22;60111;48.286;7.812;2022-09-17T06:37:12;11.50;99.90
72206;DHT22;60111;48.286;7.812;2022-09-17T06:39:45;11.50;99.90
72206;DHT22;60111;48.286;7.812;2022-09-17T06:42:18;11.50;99.90
72206;DHT22;60111;48.286;7.812;2022-09-17T06:44:50;11.60;99.90
72206;DHT22;60111;48.286;7.812;2022-09-17T06:47:24;11.60;99.90
72206;DHT22;60111;48.286;7.812;2022-09-17T06:49:56;11.60;99.90
72206;DHT22;60111;48.286;7.812;2022-09-17T06:52:30;11.70;99.90
72206;DHT22;60111;48.286;7.812;2022-09-17T06:55:03;11.70;99.90
72206;DHT22;60111;48.286;7.812;2022-09-17T06:57:35;11.70;99.90
72206;DHT22;60111;48.286;7.812;2022-09-17T07:00:10;11.80;99.90
72206;DHT22;60111;48.286;7.812;2022-09-17T07:02:42;11.80;99.90
72206;DHT22;60111;48.286;7.812;2022-09-17T07:05:15;11.80;99.90
72206;DHT22;60111;48.286;7.812;2022-09-17T07:07:47;11.80;99.90
72206;DHT22;60111;48.286;7.812;2022-09-17T07:10:21;11.80;99.90
72206;DHT22;60111;48.286;7.812;2022-09-17T07:12:54;11.90;99.90
72206;DHT22;60111;48.286;7.812;2022-09-17T07:15:26;11.80;99.90
72206;DHT22;60111;48.286;7.812;2022-09-17T07:17:59;11.80;99.90
72206;DHT22;60111;48.286;7.812;2022-09-17T07:20:33;11.80;99.90
72206;DHT22;60111;48.286;7.812;2022-09-17T07:23:06;11.80;99.90
72206;DHT22;60111;48.286;7.812;2022-09-17T07:25:39;11.70;99.90
72206;DHT22;60111;48.286;7.812;2022-09-17T07:28:11;11.70;99.90
72206;DHT22;60111;48.286;7.812;2022-09-17T07:30:44;11.80;99.90
72206;DHT22;60111;48.286;7.812;2022-09-17T07:33:18;11.90;99.90
72206;DHT22;60111;48.286;7.812;2022-09-17T07:35:58;11.90;99.90
72206;DHT22;60111;48.286;7.812;2022-09-17T07:38:32;11.90;99.90
72206;DHT22;60111;48.286;7.812;2022-09-17T07:43:43;12.00;99.90
72206;DHT22;60111;48.286;7.812;2022-09-17T07:46:18;12.00;99.90
72206;DHT22;60111;48.286;7.812;2022-09-17T07:48:51;12.10;99.90
72206;DHT22;60111;48.286;7.812;2022-09-17T07:51:25;12.10;99.90
72206;DHT22;60111;48.286;7.812;2022-09-17T07:54:01;12.20;99.90
72206;DHT22;60111;48.286;7.812;2022-09-17T07:56:33;12.20;99.90
72206;DHT22;60111;48.286;7.812;2022-09-17T07:59:07;12.20;99.90
72206;DHT22;60111;48.286;7.812;2022-09-17T08:01:40;12.20;99.90
72206;DHT22;60111;48.286;7.812;2022-09-17T08:04:17;12.20;99.90
72206;DHT22;60111;48.286;7.812;2022-09-17T08:06:47;12.20;99.90
72206;DHT22;60111;48.286;7.812;2022-09-17T08:09:19;12.20;99.90
72206;DHT22;60111;48.286;7.812;2022-09-17T08:11:53;12.20;99.90
72206;DHT22;60111;48.286;7.812;2022-09-17T08:14:25;12.30;99.90
72206;DHT22;60111;48.286;7.812;2022-09-17T08:16:58;12.30;99.90
72206;DHT22;60111;48.286;7.812;2022-09-17T08:19:31;12.30;99.90
72206;DHT22;60111;48.286;7.812;2022-09-17T08:22:05;12.30;99.90
72206;DHT22;60111;48.286;7.812;2022-09-17T08:24:37;12.40;99.90
72206;DHT22;60111;48.286;7.812;2022-09-17T08:27:10;12.50;99.90
72206;DHT22;60111;48.286;7.812;2022-09-17T08:29:42;12.50;99.90
72206;DHT22;60111;48.286;7.812;2022-09-17T08:32:15;12.60;99.90
72206;DHT22;60111;48.286;7.812;2022-09-17T08:34:48;12.70;99.90
72206;DHT22;60111;48.286;7.812;2022-09-17T08:37:20;12.70;99.90
72206;DHT22;60111;48.286;7.812;2022-09-17T08:39:53;12.80;99.40
72206;DHT22;60111;48.286;7.812;2022-09-17T08:42:36;12.80;99.40
72206;DHT22;60111;48.286;7.812;2022-09-17T08:45:11;12.80;99.90
72206;DHT22;60111;48.286;7.812;2022-09-17T08:47:44;12.70;99.90
72206;DHT22;60111;48.286;7.812;2022-09-17T08:50:25;12.80;99.30
72206;DHT22;60111;48.286;7.812;2022-09-17T08:58:59;12.60;99.90
72206;DHT22;60111;48.286;7.812;2022-09-17T09:07:14;12.30;99.90
72206;DHT22;60111;48.286;7.812;2022-09-17T09:10:04;12.20;99.90
72206;DHT22;60111;48.286;7.812;2022-09-17T09:12:30;12.20;99.90
72206;DHT22;60111;48.286;7.812;2022-09-17T09:15:14;12.20;99.90
72206;DHT22;60111;48.286;7.812;2022-09-17T09:17:43;12.20;99.90
72206;DHT22;60111;48.286;7.812;2022-09-17T09:20:22;12.30;99.90
72206;DHT22;60111;48.286;7.812;2022-09-17T09:22:52;12.40;99.90
72206;DHT22;60111;48.286;7.812;2022-09-17T09:25:26;12.50;99.90
72206;DHT22;60111;48.286;7.812;2022-09-17T09:31:31;12.70;99.90
72206;DHT22;60111;48.286;7.812;2022-09-17T09:34:02;12.50;99.90
72206;DHT22;60111;48.286;7.812;2022-09-17T09:36:37;12.40;99.90
72206;DHT22;60111;48.286;7.812;2022-09-17T09:39:24;12.40;99.90
72206;DHT22;60111;48.286;7.812;2022-09-17T09:42:06;12.40;99.90
72206;DHT22;60111;48.286;7.812;2022-09-17T09:44:40;12.50;99.90
72206;DHT22;60111;48.286;7.812;2022-09-17T09:47:40;12.60;99.90
72206;DHT22;60111;48.286;7.812;2022-09-17T09:50:40;12.80;99.00
72206;DHT22;60111;48.286;7.812;2022-09-17T09:53:35;13.00;99.20
72206;DHT22;60111;48.286;7.812;2022-09-17T09:56:54;13.10;99.20
72206;DHT22;60111;48.286;7.812;2022-09-17T09:58:46;13.20;98.90
72206;DHT22;60111;48.286;7.812;2022-09-17T10:01:19;13.40;98.90
72206;DHT22;60111;48.286;7.812;2022-09-17T10:03:53;13.50;98.00
72206;DHT22;60111;48.286;7.812;2022-09-17T10:06:29;13.50;97.30
72206;DHT22;60111;48.286;7.812;2022-09-17T10:11:39;13.40;97.30
72206;DHT22;60111;48.286;7.812;2022-09-17T10:14:24;13.30;99.00
72206;DHT22;60111;48.286;7.812;2022-09-17T10:17:19;13.50;97.60
72206;DHT22;60111;48.286;7.812;2022-09-17T10:22:45;13.60;96.80
72206;DHT22;60111;48.286;7.812;2022-09-17T10:25:29;13.60;96.60
72206;DHT22;60111;48.286;7.812;2022-09-17T10:28:04;13.50;97.10
72206;DHT22;60111;48.286;7.812;2022-09-17T10:30:38;13.50;97.30
72206;DHT22;60111;48.286;7.812;2022-09-17T10:33:23;13.60;97.40
72206;DHT22;60111;48.286;7.812;2022-09-17T10:36:04;13.50;96.10
72206;DHT22;60111;48.286;7.812;2022-09-17T10:38:40;13.40;96.60
72206;DHT22;60111;48.286;7.812;2022-09-17T10:41:16;13.40;97.60
72206;DHT22;60111;48.286;7.812;2022-09-17T10:43:50;13.40;96.00
72206;DHT22;60111;48.286;7.812;2022-09-17T10:46:25;13.50;97.20
72206;DHT22;60111;48.286;7.812;2022-09-17T10:49:57;13.70;96.10
72206;DHT22;60111;48.286;7.812;2022-09-17T10:51:44;13.80;96.40
72206;DHT22;60111;48.286;7.812;2022-09-17T10:57:15;13.90;95.30
72206;DHT22;60111;48.286;7.812;2022-09-17T11:00:00;13.90;95.60
72206;DHT22;60111;48.286;7.812;2022-09-17T11:02:33;14.00;95.70
72206;DHT22;60111;48.286;7.812;2022-09-17T11:07:46;14.10;95.20
72206;DHT22;60111;48.286;7.812;2022-09-17T11:10:44;14.20;95.60
72206;DHT22;60111;48.286;7.812;2022-09-17T11:13:36;14.30;95.00
72206;DHT22;60111;48.286;7.812;2022-09-17T11:16:13;14.40;95.50
72206;DHT22;60111;48.286;7.812;2022-09-17T11:21:41;14.80;95.00
72206;DHT22;60111;48.286;7.812;2022-09-17T11:27:14;15.00;93.80
72206;DHT22;60111;48.286;7.812;2022-09-17T11:29:57;14.70;94.10
72206;DHT22;60111;48.286;7.812;2022-09-17T11:35:56;14.30;94.50
72206;DHT22;60111;48.286;7.812;2022-09-17T11:38:14;14.30;94.70
72206;DHT22;60111;48.286;7.812;2022-09-17T11:41:01;14.20;94.90
72206;DHT22;60111;48.286;7.812;2022-09-17T11:43:42;14.10;95.30
72206;DHT22;60111;48.286;7.812;2022-09-17T11:49:04;14.10;95.60
72206;DHT22;60111;48.286;7.812;2022-09-17T11:51:40;14.00;95.50
72206;DHT22;60111;48.286;7.812;2022-09-17T11:54:29;14.10;95.60
72206;DHT22;60111;48.286;7.812;2022-09-17T11:57:18;14.30;95.80
72206;DHT22;60111;48.286;7.812;2022-09-17T12:00:20;14.60;94.60
72206;DHT22;60111;48.286;7.812;2022-09-17T12:03:28;14.90;94.90
72206;DHT22;60111;48.286;7.812;2022-09-17T12:06:08;15.20;94.30
72206;DHT22;60111;48.286;7.812;2022-09-17T12:11:29;15.40;92.90
72206;DHT22;60111;48.286;7.812;2022-09-17T12:14:13;15.60;95.40
72206;DHT22;60111;48.286;7.812;2022-09-17T12:16:44;15.90;93.40
72206;DHT22;60111;48.286;7.812;2022-09-17T12:19:31;16.00;91.50
72206;DHT22;60111;48.286;7.812;2022-09-17T12:22:10;16.00;91.20
72206;DHT22;60111;48.286;7.812;2022-09-17T12:24:42;16.00;90.80
72206;DHT22;60111;48.286;7.812;2022-09-17T12:27:37;16.00;90.90
72206;DHT22;60111;48.286;7.812;2022-09-17T12:38:57;16.10;90.60
72206;DHT22;60111;48.286;7.812;2022-09-17T12:47:45;15.40;89.50
72206;DHT22;60111;48.286;7.812;2022-09-17T12:53:13;15.40;90.50
72206;DHT22;60111;48.286;7.812;2022-09-17T13:04:01;15.40;88.30
72206;DHT22;60111;48.286;7.812;2022-09-17T13:18:26;15.90;89.00
72206;DHT22;60111;48.286;7.812;2022-09-17T13:23:53;16.00;86.90
72206;DHT22;60111;48.286;7.812;2022-09-17T13:26:36;15.90;87.70
72206;DHT22;60111;48.286;7.812;2022-09-17T13:29:10;15.80;88.70
72206;DHT22;60111;48.286;7.812;2022-09-17T13:31:46;15.80;89.00
72206;DHT22;60111;48.286;7.812;2022-09-17T13:34:30;15.90;90.10
72206;DHT22;60111;48.286;7.812;2022-09-17T13:37:04;16.10;89.20
72206;DHT22;60111;48.286;7.812;2022-09-17T13:39:46;16.20;89.20
72206;DHT22;60111;48.286;7.812;2022-09-17T13:42:24;16.40;87.40
72206;DHT22;60111;48.286;7.812;2022-09-17T13:45:14;16.20;88.30
72206;DHT22;60111;48.286;7.812;2022-09-17T13:47:56;16.10;85.90
72206;DHT22;60111;48.286;7.812;2022-09-17T13:50:32;16.10;84.90
72206;DHT22;60111;48.286;7.812;2022-09-17T13:53:16;16.10;86.00
72206;DHT22;60111;48.286;7.812;2022-09-17T13:55:53;16.10;85.80
72206;DHT22;60111;48.286;7.812;2022-09-17T13:58:32;16.10;85.40
72206;DHT22;60111;48.286;7.812;2022-09-17T14:01:10;16.20;85.30
72206;DHT22;60111;48.286;7.812;2022-09-17T14:03:45;16.40;86.60
72206;DHT22;60111;48.286;7.812;2022-09-17T14:08:57;16.40;85.90
72206;DHT22;60111;48.286;7.812;2022-09-17T14:14:50;16.30;85.30
72206;DHT22;60111;48.286;7.812;2022-09-17T14:16:48;16.40;83.60
72206;DHT22;60111;48.286;7.812;2022-09-17T14:22:21;16.60;87.90
72206;DHT22;60111;48.286;7.812;2022-09-17T14:24:53;16.90;87.60
72206;DHT22;60111;48.286;7.812;2022-09-17T14:27:43;16.90;85.10
72206;DHT22;60111;48.286;7.812;2022-09-17T14:30:24;16.60;86.30
72206;DHT22;60111;48.286;7.812;2022-09-17T14:33:15;16.40;85.20
72206;DHT22;60111;48.286;7.812;2022-09-17T14:35:53;16.20;90.20
72206;DHT22;60111;48.286;7.812;2022-09-17T14:38:37;16.10;84.90
72206;DHT22;60111;48.286;7.812;2022-09-17T14:43:54;16.10;85.90
72206;DHT22;60111;48.286;7.812;2022-09-17T14:46:29;16.20;87.00
72206;DHT22;60111;48.286;7.812;2022-09-17T14:49:26;16.30;87.20
72206;DHT22;60111;48.286;7.812;2022-09-17T14:52:04;16.30;85.00
72206;DHT22;60111;48.286;7.812;2022-09-17T14:54:36;16.20;84.60
72206;DHT22;60111;48.286;7.812;2022-09-17T14:57:25;16.30;87.60
72206;DHT22;60111;48.286;7.812;2022-09-17T14:59:59;16.40;85.90
72206;DHT22;60111;48.286;7.812;2022-09-17T15:02:42;16.40;87.10
72206;DHT22;60111;48.286;7.812;2022-09-17T15:05:31;16.50;85.40
72206;DHT22;60111;48.286;7.812;2022-09-17T15:10:51;16.30;85.50
72206;DHT22;60111;48.286;7.812;2022-09-17T15:13:40;16.30;86.90
72206;DHT22;60111;48.286;7.812;2022-09-17T15:16:23;16.40;85.60
72206;DHT22;60111;48.286;7.812;2022-09-17T15:19:00;16.30;85.30
72206;DHT22;60111;48.286;7.812;2022-09-17T15:21:38;16.10;86.30
72206;DHT22;60111;48.286;7.812;2022-09-17T15:24:27;15.80;87.30
72206;DHT22;60111;48.286;7.812;2022-09-17T15:26:58;15.70;89.40
72206;DHT22;60111;48.286;7.812;2022-09-17T15:29:33;15.60;89.40
72206;DHT22;60111;48.286;7.812;2022-09-17T15:32:08;15.60;89.90
72206;DHT22;60111;48.286;7.812;2022-09-17T15:34:42;15.50;90.00
72206;DHT22;60111;48.286;7.812;2022-09-17T15:37:19;15.40;90.50
72206;DHT22;60111;48.286;7.812;2022-09-17T15:39:53;15.40;91.00
72206;DHT22;60111;48.286;7.812;2022-09-17T15:42:29;15.40;91.10
72206;DHT22;60111;48.286;7.812;2022-09-17T15:45:26;15.30;91.40
72206;DHT22;60111;48.286;7.812;2022-09-17T15:48:00;15.30;91.60
72206;DHT22;60111;48.286;7.812;2022-09-17T15:50:35;15.40;91.50
72206;DHT22;60111;48.286;7.812;2022-09-17T15:53:11;15.40;91.00
72206;DHT22;60111;48.286;7.812;2022-09-17T15:55:45;15.40;91.10
72206;DHT22;60111;48.286;7.812;2022-09-17T15:58:28;15.40;91.40
72206;DHT22;60111;48.286;7.812;2022-09-17T16:08:59;14.80;92.40
72206;DHT22;60111;48.286;7.812;2022-09-17T16:11:32;14.70;93.30
72206;DHT22;60111;48.286;7.812;2022-09-17T16:14:05;14.80;92.70
72206;DHT22;60111;48.286;7.812;2022-09-17T16:16:37;14.80;92.50
72206;DHT22;60111;48.286;7.812;2022-09-17T16:19:10;14.80;92.70
72206;DHT22;60111;48.286;7.812;2022-09-17T16:21:43;14.70;92.90
72206;DHT22;60111;48.286;7.812;2022-09-17T16:24:15;14.70;93.10
72206;DHT22;60111;48.286;7.812;2022-09-17T16:26:48;14.80;93.40
72206;DHT22;60111;48.286;7.812;2022-09-17T16:29:22;14.70;93.30
72206;DHT22;60111;48.286;7.812;2022-09-17T16:31:54;14.70;93.30
72206;DHT22;60111;48.286;7.812;2022-09-17T16:34:27;14.70;93.40
72206;DHT22;60111;48.286;7.812;2022-09-17T16:37:00;14.70;92.10
72206;DHT22;60111;48.286;7.812;2022-09-17T16:39:32;14.60;92.40
72206;DHT22;60111;48.286;7.812;2022-09-17T16:42:05;14.50;92.40
72206;DHT22;60111;48.286;7.812;2022-09-17T16:44:38;14.50;92.60
72206;DHT22;60111;48.286;7.812;2022-09-17T16:47:11;14.60;92.50
72206;DHT22;60111;48.286;7.812;2022-09-17T16:49:44;14.50;92.30
72206;DHT22;60111;48.286;7.812;2022-09-17T16:52:16;14.50;92.80
72206;DHT22;60111;48.286;7.812;2022-09-17T16:54:49;14.50;92.90
72206;DHT22;60111;48.286;7.812;2022-09-17T16:57:21;14.50;93.00
72206;DHT22;60111;48.286;7.812;2022-09-17T16:59:54;14.40;93.30
72206;DHT22;60111;48.286;7.812;2022-09-17T17:02:27;14.30;93.60
72206;DHT22;60111;48.286;7.812;2022-09-17T17:04:59;14.30;93.60
72206;DHT22;60111;48.286;7.812;2022-09-17T17:07:33;14.30;94.50
72206;DHT22;60111;48.286;7.812;2022-09-17T17:10:06;14.30;95.00
72206;DHT22;60111;48.286;7.812;2022-09-17T17:12:42;14.20;94.90
72206;DHT22;60111;48.286;7.812;2022-09-17T17:15:15;14.00;95.50
72206;DHT22;60111;48.286;7.812;2022-09-17T17:17:47;13.90;96.30
72206;DHT22;60111;48.286;7.812;2022-09-17T17:20:20;13.80;96.80
72206;DHT22;60111;48.286;7.812;2022-09-17T17:22:54;13.80;97.00
72206;DHT22;60111;48.286;7.812;2022-09-17T17:25:28;13.70;97.80
72206;DHT22;60111;48.286;7.812;2022-09-17T17:28:01;13.70;97.60
72206;DHT22;60111;48.286;7.812;2022-09-17T17:30:36;13.50;97.90
72206;DHT22;60111;48.286;7.812;2022-09-17T17:33:08;13.50;97.80
72206;DHT22;60111;48.286;7.812;2022-09-17T17:35:42;13.40;98.30
72206;DHT22;60111;48.286;7.812;2022-09-17T17:38:19;13.40;98.40
72206;DHT22;60111;48.286;7.812;2022-09-17T17:41:02;13.40;98.50
72206;DHT22;60111;48.286;7.812;2022-09-17T17:43:35;13.40;98.70
72206;DHT22;60111;48.286;7.812;2022-09-17T17:46:10;13.40;98.20
72206;DHT22;60111;48.286;7.812;2022-09-17T17:48:43;13.30;98.60
72206;DHT22;60111;48.286;7.812;2022-09-17T17:51:16;13.30;98.90
72206;DHT22;60111;48.286;7.812;2022-09-17T17:53:49;13.20;99.10
72206;DHT22;60111;48.286;7.812;2022-09-17T17:56:22;13.20;99.30
72206;DHT22;60111;48.286;7.812;2022-09-17T17:58:56;13.10;99.50
72206;DHT22;60111;48.286;7.812;2022-09-17T18:01:30;13.10;99.00
72206;DHT22;60111;48.286;7.812;2022-09-17T18:04:05;13.10;99.00
72206;DHT22;60111;48.286;7.812;2022-09-17T18:06:41;13.10;99.30
72206;DHT22;60111;48.286;7.812;2022-09-17T18:09:14;13.10;99.20
72206;DHT22;60111;48.286;7.812;2022-09-17T18:11:47;13.00;99.00
72206;DHT22;60111;48.286;7.812;2022-09-17T18:14:19;13.10;99.10
72206;DHT22;60111;48.286;7.812;2022-09-17T18:16:52;13.10;99.10
72206;DHT22;60111;48.286;7.812;2022-09-17T18:19:24;13.10;98.90
72206;DHT22;60111;48.286;7.812;2022-09-17T18:21:57;13.10;99.10
72206;DHT22;60111;48.286;7.812;2022-09-17T18:24:30;13.10;99.10
72206;DHT22;60111;48.286;7.812;2022-09-17T18:27:02;13.00;99.20
72206;DHT22;60111;48.286;7.812;2022-09-17T18:29:35;13.00;98.90
72206;DHT22;60111;48.286;7.812;2022-09-17T18:32:08;13.00;98.80
72206;DHT22;60111;48.286;7.812;2022-09-17T18:34:41;12.90;99.00
72206;DHT22;60111;48.286;7.812;2022-09-17T18:37:13;12.90;99.00
72206;DHT22;60111;48.286;7.812;2022-09-17T18:39:46;12.90;98.50